Kayare, Texas
Current Conditions -  °F | °C
As of 6:52 AM on Saturday 20 Dec 2014 (Local Time) from KHRL Reporting Station
Overcast Overcast  
Wind Chill: 57°   Ceiling: 700
Heat Index: 57°   Visibility: 10mi
Dew Point: 55°   Wind: 15mph
Humidity: 93%   Direction: 360°N
Pressure: 30.13"   Gusts: NA
Location:  26.2089°N, 97.6849°W
Report Text: KHRL 201252Z 36013KT 10SM OVC007 14/13 A3013 RMK AO2 SLP203 T01390128
Loading
Personal Weather Stations






























Interactive Weather Map New forecast layout! Learn more

10-Day Weather Forecast

Advertisements
Track Severe Weather on mobile